Time;durP1;ratioP1;P1;durP2;ratioP2;P2;SDS_P1;SDS_P2;PMS_P1;PMS_P2;Temp;Humidity;BMP_temperature;BMP_pressure;BME280_temperature;BME280_humidity;BME280_pressure;Samples;Min_cycle;Max_cycle;Signal;HPM_P1;HPM_P2
2022/04/29 00:00:41;;;;;;;8.15;3.70;;;6.90;99.90;;;;;;4998394;28;20042;-50
2022/04/29 00:03:08;;;;;;;13.77;4.40;;;6.90;99.90;;;;;;5000205;28;20144;-50
2022/04/29 00:05:35;;;;;;;9.43;4.32;;;6.90;99.90;;;;;;4998619;28;20054;-49
2022/04/29 00:08:05;;;;;;;9.50;4.22;;;6.90;99.90;;;;;;4999879;28;20038;-49
2022/04/29 00:10:31;;;;;;;9.65;4.03;;;6.90;99.90;;;;;;4999388;28;20098;-52
2022/04/29 00:12:59;;;;;;;11.23;4.22;;;6.90;99.90;;;;;;4998885;28;20544;-50
2022/04/29 00:15:26;;;;;;;9.60;4.38;;;6.90;99.90;;;;;;5000353;28;20050;-51
2022/04/29 00:17:51;;;;;;;11.57;4.10;;;6.80;99.90;;;;;;4998262;28;20031;-52
2022/04/29 00:20:17;;;;;;;8.40;3.95;;;6.80;99.90;;;;;;4999592;28;20398;-52
2022/04/29 00:22:44;;;;;;;10.73;4.28;;;6.90;99.90;;;;;;4998141;28;20479;-51
2022/04/29 00:25:11;;;;;;;10.60;4.38;;;6.80;99.90;;;;;;4999611;28;20537;-52
2022/04/29 00:27:37;;;;;;;10.57;4.28;;;6.80;99.90;;;;;;4999372;28;20050;-51
2022/04/29 00:30:04;;;;;;;10.32;4.28;;;6.90;99.90;;;;;;4998798;28;20049;-49
2022/04/29 00:32:30;;;;;;;8.73;4.38;;;6.90;99.90;;;;;;5000065;28;20042;-52
2022/04/29 00:34:56;;;;;;;10.48;4.65;;;6.90;99.90;;;;;;4997988;28;20046;-51
2022/04/29 00:37:22;;;;;;;11.63;5.10;;;6.90;99.90;;;;;;4999834;28;20047;-52
2022/04/29 00:39:47;;;;;;;11.05;4.57;;;6.90;99.90;;;;;;4998648;28;20044;-52
2022/04/29 00:42:18;;;;;;;12.30;5.20;;;6.90;99.90;;;;;;4999305;28;20091;-50
2022/04/29 00:44:45;;;;;;;11.55;5.32;;;6.80;99.90;;;;;;4999150;28;20057;-50
2022/04/29 00:47:13;;;;;;;10.50;4.65;;;6.80;99.90;;;;;;4997121;28;20046;-50
2022/04/29 00:49:39;;;;;;;11.60;4.47;;;7.10;99.90;;;;;;4999809;28;20101;-53
2022/04/29 00:52:11;;;;;;;10.80;4.82;;;6.90;99.90;;;;;;5007176;28;20045;-50
2022/04/29 00:54:39;;;;;;;9.18;4.70;;;6.80;99.90;;;;;;5019336;28;20046;-51
2022/04/29 00:57:11;;;;;;;12.50;4.90;;;6.70;99.90;;;;;;5017868;28;20042;-51
2022/04/29 00:59:51;;;;;;;12.02;4.85;;;6.70;99.90;;;;;;5018629;28;20141;-53
2022/04/29 01:02:17;;;;;;;12.13;4.78;;;6.70;99.90;;;;;;5019105;28;20563;-54
2022/04/29 01:04:55;;;;;;;11.45;4.88;;;6.70;99.90;;;;;;5017742;28;20042;-52
2022/04/29 01:07:22;;;;;;;15.25;6.30;;;6.60;99.90;;;;;;5001573;28;20469;-50
2022/04/29 01:09:48;;;;;;;12.05;4.90;;;6.60;99.90;;;;;;5017634;28;20058;-50
2022/04/29 01:12:14;;;;;;;12.23;5.55;;;6.70;99.90;;;;;;5019082;28;20090;-53
2022/04/29 01:14:40;;;;;;;11.48;4.78;;;6.50;99.90;;;;;;5018431;28;20057;-51
2022/04/29 01:17:06;;;;;;;8.95;4.53;;;6.60;99.90;;;;;;5018134;28;20046;-53
2022/04/29 01:19:32;;;;;;;13.65;5.38;;;6.50;99.90;;;;;;5022591;28;20048;-52
2022/04/29 01:22:01;;;;;;;11.02;4.82;;;6.60;99.90;;;;;;5020739;28;20046;-50
2022/04/29 01:24:27;;;;;;;11.65;4.45;;;6.40;99.90;;;;;;5022632;28;20061;-52
2022/04/29 01:26:52;;;;;;;10.50;4.78;;;6.40;99.90;;;;;;5021122;28;20045;-49
2022/04/29 01:29:21;;;;;;;10.73;5.50;;;6.40;99.90;;;;;;5022269;28;20037;-49
2022/04/29 01:31:48;;;;;;;11.15;5.18;;;6.40;99.90;;;;;;5021603;28;20123;-52
2022/04/29 01:34:14;;;;;;;9.93;4.10;;;6.50;99.90;;;;;;5003921;28;20153;-52
2022/04/29 01:36:39;;;;;;;12.40;4.60;;;6.50;99.90;;;;;;5022615;28;20417;-52
2022/04/29 01:39:05;;;;;;;13.10;5.20;;;6.50;99.90;;;;;;5020530;28;20088;-52
2022/04/29 01:41:33;;;;;;;10.65;5.13;;;6.50;99.90;;;;;;5022166;28;20113;-52
2022/04/29 01:43:59;;;;;;;10.73;5.10;;;6.50;99.90;;;;;;5020760;28;20065;-51
2022/04/29 01:46:24;;;;;;;13.63;6.22;;;6.50;99.90;;;;;;5021998;28;20037;-52
2022/04/29 01:48:50;;;;;;;12.15;4.70;;;6.40;99.90;;;;;;5021487;28;20034;-50
2022/04/29 01:51:15;;;;;;;10.43;4.65;;;6.50;99.90;;;;;;5021114;28;20116;-51
2022/04/29 01:53:41;;;;;;;10.95;4.75;;;6.50;99.90;;;;;;5022024;28;20121;-52
2022/04/29 01:56:07;;;;;;;10.10;5.05;;;6.50;99.90;;;;;;5020404;28;20065;-53
2022/04/29 01:58:33;;;;;;;12.90;5.07;;;6.60;99.90;;;;;;5004298;28;20042;-54
2022/04/29 02:00:59;;;;;;;10.95;5.10;;;6.50;99.90;;;;;;5020356;28;20038;-52
2022/04/29 02:03:25;;;;;;;8.90;4.47;;;6.60;99.90;;;;;;5021706;28;20410;-53
2022/04/29 02:05:50;;;;;;;8.02;4.43;;;6.50;99.90;;;;;;5020755;28;20125;-52
2022/04/29 02:08:16;;;;;;;8.65;4.35;;;6.30;99.90;;;;;;5021133;28;20130;-52
2022/04/29 02:10:42;;;;;;;10.98;4.80;;;6.40;99.90;;;;;;5021774;28;20049;-48
2022/04/29 02:13:08;;;;;;;11.20;4.93;;;6.40;99.90;;;;;;5020338;28;20062;-50
2022/04/29 02:15:34;;;;;;;12.43;5.18;;;6.50;99.90;;;;;;5021786;28;20115;-53
2022/04/29 02:18:00;;;;;;;10.13;5.40;;;6.50;99.90;;;;;;5019993;28;20038;-53
2022/04/29 02:20:26;;;;;;;9.60;4.85;;;6.60;99.90;;;;;;5021389;28;20113;-50
2022/04/29 02:22:53;;;;;;;11.30;5.15;;;6.50;99.90;;;;;;5019627;28;20052;-50
2022/04/29 02:25:19;;;;;;;9.25;4.65;;;6.50;99.90;;;;;;5021088;28;20065;-52
2022/04/29 02:27:45;;;;;;;10.88;4.90;;;6.50;99.90;;;;;;5021082;28;20049;-51
2022/04/29 02:30:12;;;;;;;10.07;4.95;;;6.40;99.90;;;;;;5018921;28;20151;-52
2022/04/29 02:32:38;;;;;;;10.57;5.05;;;6.50;99.90;;;;;;5021612;28;20045;-51
2022/04/29 02:35:05;;;;;;;10.30;4.85;;;6.40;99.90;;;;;;5019806;28;20058;-49
2022/04/29 02:37:32;;;;;;;14.05;7.75;;;6.40;99.90;;;;;;5021011;28;20038;-54
2022/04/29 02:39:58;;;;;;;13.15;7.68;;;6.50;99.90;;;;;;5019939;28;20096;-53
2022/04/29 02:42:23;;;;;;;10.07;5.32;;;6.40;99.90;;;;;;5020644;28;20045;-53
2022/04/29 02:44:49;;;;;;;9.52;4.50;;;6.30;99.90;;;;;;5020571;28;20041;-51
2022/04/29 02:47:15;;;;;;;12.10;4.97;;;6.40;99.90;;;;;;5019831;28;20076;-49
2022/04/29 02:49:43;;;;;;;9.35;4.95;;;6.40;99.90;;;;;;5021225;28;20584;-51
2022/04/29 02:52:10;;;;;;;10.23;5.20;;;6.40;99.90;;;;;;5018958;28;20069;-49
2022/04/29 02:54:37;;;;;;;9.93;5.63;;;6.30;99.90;;;;;;5003193;28;20522;-52
2022/04/29 02:57:03;;;;;;;10.57;5.13;;;6.20;99.90;;;;;;5019323;28;20050;-49
2022/04/29 02:59:29;;;;;;;10.10;4.93;;;6.30;99.90;;;;;;5020688;28;20077;-49
2022/04/29 03:01:54;;;;;;;10.75;5.13;;;6.30;99.90;;;;;;5020146;28;20045;-54
2022/04/29 03:04:20;;;;;;;8.40;4.88;;;6.30;99.90;;;;;;5001945;28;20097;-52
2022/04/29 03:06:46;;;;;;;8.85;4.40;;;6.30;99.90;;;;;;5003157;28;20647;-48
2022/04/29 03:09:12;;;;;;;8.90;4.70;;;6.30;99.90;;;;;;5018916;28;20053;-50
2022/04/29 03:11:38;;;;;;;8.90;4.70;;;6.20;99.90;;;;;;5020456;28;20049;-50
2022/04/29 03:14:05;;;;;;;10.98;4.78;;;6.10;99.90;;;;;;5019097;28;20053;-52
2022/04/29 03:16:31;;;;;;;11.15;5.00;;;6.20;99.90;;;;;;5020335;28;20046;-52
2022/04/29 03:18:57;;;;;;;10.00;5.00;;;6.10;99.90;;;;;;5019688;28;20064;-53
2022/04/29 03:21:24;;;;;;;9.77;5.38;;;6.10;99.90;;;;;;5019247;28;20037;-51
2022/04/29 03:23:50;;;;;;;12.32;5.50;;;6.10;99.90;;;;;;5020539;28;20092;-51
2022/04/29 03:26:16;;;;;;;11.25;5.63;;;6.20;99.90;;;;;;5018761;28;20064;-52
2022/04/29 03:28:41;;;;;;;9.95;5.90;;;6.10;99.90;;;;;;5020430;28;20129;-53
2022/04/29 03:31:07;;;;;;;10.38;5.85;;;6.10;99.90;;;;;;5018888;28;20049;-52
2022/04/29 03:33:34;;;;;;;13.63;6.55;;;6.10;99.90;;;;;;5019751;28;20049;-52
2022/04/29 03:35:59;;;;;;;15.88;6.60;;;6.10;99.90;;;;;;5019332;28;20044;-55
2022/04/29 03:38:25;;;;;;;12.38;6.05;;;6.10;99.90;;;;;;5019254;28;20077;-51
2022/04/29 03:40:55;;;;;;;12.85;5.80;;;6.30;99.90;;;;;;5020089;28;20470;-53
2022/04/29 03:43:21;;;;;;;10.88;5.65;;;6.20;99.90;;;;;;5018263;28;20069;-50
2022/04/29 03:45:47;;;;;;;11.35;6.05;;;6.30;99.90;;;;;;5020021;28;20049;-51
2022/04/29 03:48:13;;;;;;;11.07;6.22;;;6.20;99.90;;;;;;5018550;28;20046;-51
2022/04/29 03:50:39;;;;;;;12.43;6.07;;;6.30;99.90;;;;;;5001949;28;20081;-52
2022/04/29 03:53:06;;;;;;;12.98;6.18;;;6.30;99.90;;;;;;4983283;28;20115;-48
2022/04/29 03:55:33;;;;;;;12.40;6.32;;;6.30;99.90;;;;;;4999419;28;20090;-49
2022/04/29 03:58:02;;;;;;;11.18;6.07;;;6.40;99.90;;;;;;5000662;28;20104;-49
2022/04/29 04:00:33;;;;;;;15.63;6.43;;;6.40;99.90;;;;;;4998565;28;20038;-51
2022/04/29 04:03:00;;;;;;;13.00;7.27;;;6.40;99.90;;;;;;5000231;28;20058;-54
2022/04/29 04:05:26;;;;;;;15.10;6.32;;;6.40;99.90;;;;;;4998852;28;20458;-53
2022/04/29 04:07:52;;;;;;;9.82;6.03;;;6.40;99.90;;;;;;4999865;28;20129;-50
2022/04/29 04:10:18;;;;;;;14.90;6.10;;;6.50;99.90;;;;;;4999432;28;20049;-51
2022/04/29 04:12:51;;;;;;;16.98;6.97;;;6.50;99.90;;;;;;4999080;28;20042;-53
2022/04/29 04:15:23;;;;;;;10.13;6.50;;;6.50;99.90;;;;;;5000360;28;20050;-53
2022/04/29 04:17:49;;;;;;;9.02;5.90;;;6.60;99.90;;;;;;4998484;28;20056;-51
2022/04/29 04:20:16;;;;;;;13.75;6.25;;;6.60;99.90;;;;;;4999926;28;20058;-51
2022/04/29 04:22:42;;;;;;;9.68;6.38;;;6.70;99.90;;;;;;4998165;28;20049;-52
2022/04/29 04:25:10;;;;;;;14.75;6.55;;;6.60;99.90;;;;;;4999619;28;20042;-53
2022/04/29 04:27:37;;;;;;;13.05;6.95;;;6.60;99.90;;;;;;4999695;28;20118;-53
2022/04/29 04:30:04;;;;;;;16.98;7.95;;;6.60;99.90;;;;;;4998707;28;20047;-53
2022/04/29 04:32:34;;;;;;;13.50;5.95;;;6.60;99.90;;;;;;5000310;28;20058;-50
2022/04/29 04:35:00;;;;;;;11.88;6.78;;;6.60;99.90;;;;;;4998377;28;20098;-51
2022/04/29 04:37:28;;;;;;;9.98;6.10;;;6.60;99.90;;;;;;4999884;28;20065;-51
2022/04/29 04:39:54;;;;;;;13.98;5.97;;;6.50;99.90;;;;;;4998399;28;20046;-52
2022/04/29 04:42:20;;;;;;;10.60;5.85;;;6.70;99.90;;;;;;4999126;28;20081;-49
2022/04/29 04:44:49;;;;;;;13.63;7.18;;;6.70;99.90;;;;;;4981751;28;20046;-51
2022/04/29 04:47:15;;;;;;;12.25;6.10;;;6.90;99.90;;;;;;4998040;28;20512;-49
2022/04/29 04:49:41;;;;;;;12.20;6.20;;;6.90;99.90;;;;;;4999967;28;20042;-49
2022/04/29 04:52:08;;;;;;;12.68;6.82;;;7.00;99.90;;;;;;5007520;28;20062;-50
2022/04/29 04:54:34;;;;;;;9.98;6.30;;;7.10;99.90;;;;;;5022734;28;20046;-52
2022/04/29 04:57:00;;;;;;;10.00;5.80;;;7.10;99.90;;;;;;5021380;28;20724;-51
2022/04/29 04:59:25;;;;;;;13.57;6.05;;;7.30;99.90;;;;;;5022857;28;20037;-52
2022/04/29 05:01:51;;;;;;;12.65;6.72;;;7.30;99.90;;;;;;5022404;28;20061;-51
2022/04/29 05:04:17;;;;;;;10.57;5.93;;;7.30;99.90;;;;;;5021867;28;20076;-52
2022/04/29 05:06:42;;;;;;;10.63;5.28;;;7.30;99.90;;;;;;5023348;28;20048;-50
2022/04/29 05:09:09;;;;;;;8.48;5.10;;;7.40;99.90;;;;;;5003545;28;20049;-50
2022/04/29 05:11:35;;;;;;;10.85;5.10;;;7.40;99.90;;;;;;5022618;28;20099;-49
2022/04/29 05:14:00;;;;;;;9.35;4.70;;;7.50;99.90;;;;;;5021390;28;20120;-53
2022/04/29 05:16:26;;;;;;;10.98;4.50;;;7.60;99.90;;;;;;5022294;28;20045;-53
2022/04/29 05:18:52;;;;;;;6.82;4.63;;;7.70;99.90;;;;;;5022022;28;20061;-52
2022/04/29 05:21:18;;;;;;;10.13;5.20;;;7.70;99.90;;;;;;5021664;28;20046;-49
2022/04/29 05:23:44;;;;;;;8.73;4.55;;;7.80;99.90;;;;;;5022661;28;20046;-52
2022/04/29 05:26:10;;;;;;;12.38;4.85;;;7.80;99.90;;;;;;5020695;28;20069;-53
2022/04/29 05:28:36;;;;;;;11.63;4.57;;;7.80;99.90;;;;;;5022444;28;20046;-52
2022/04/29 05:31:03;;;;;;;9.15;4.60;;;7.90;99.90;;;;;;5021288;28;20045;-52
2022/04/29 05:33:32;;;;;;;8.90;4.95;;;7.90;99.90;;;;;;5022173;28;20056;-51
2022/04/29 05:35:59;;;;;;;11.15;4.85;;;7.90;99.90;;;;;;5021733;28;20050;-49
2022/04/29 05:42:14;;;;;;;8.40;4.10;;;8.00;99.90;;;;;;5021275;28;20042;-52
2022/04/29 05:43:59;;;;;;;9.68;4.22;;;8.00;99.90;;;;;;5020854;28;20052;-48
2022/04/29 05:46:25;;;;;;;7.03;3.65;;;8.10;99.90;;;;;;5021877;28;20124;-49
2022/04/29 05:48:51;;;;;;;8.35;3.63;;;8.10;99.90;;;;;;5003766;28;20054;-49
2022/04/29 05:51:17;;;;;;;9.60;3.90;;;8.20;99.90;;;;;;5020812;28;20055;-52
2022/04/29 05:53:43;;;;;;;8.70;3.80;;;8.20;99.90;;;;;;5022259;28;20430;-52
2022/04/29 05:56:10;;;;;;;8.52;3.55;;;8.20;99.90;;;;;;5020582;28;20054;-55
2022/04/29 05:58:35;;;;;;;14.10;4.18;;;8.20;99.90;;;;;;5022119;28;20109;-51
2022/04/29 06:01:02;;;;;;;9.82;3.50;;;8.30;99.90;;;;;;5020521;28;20038;-50
2022/04/29 06:03:28;;;;;;;8.70;3.55;;;8.30;99.90;;;;;;5021361;28;20053;-53
2022/04/29 06:05:53;;;;;;;10.55;3.85;;;8.30;99.90;;;;;;5020897;28;20038;-51
2022/04/29 06:08:19;;;;;;;8.57;4.13;;;8.40;99.90;;;;;;5020785;28;20045;-52
2022/04/29 06:10:45;;;;;;;10.50;4.15;;;8.40;99.90;;;;;;5021910;28;20105;-53
2022/04/29 06:13:11;;;;;;;10.95;3.72;;;8.40;99.90;;;;;;5020044;28;20050;-51
2022/04/29 06:15:36;;;;;;;7.78;3.75;;;8.40;99.90;;;;;;5021884;28;20088;-53
2022/04/29 06:18:03;;;;;;;11.07;3.95;;;8.50;99.90;;;;;;5020145;28;20042;-52
2022/04/29 06:20:29;;;;;;;8.70;4.45;;;8.50;99.90;;;;;;5021142;28;20522;-53
2022/04/29 06:22:55;;;;;;;10.45;5.18;;;8.50;99.90;;;;;;5017985;28;20054;-53
2022/04/29 06:25:22;;;;;;;15.82;7.38;;;8.50;99.90;;;;;;5017847;28;20452;-52
2022/04/29 06:27:48;;;;;;;13.57;4.95;;;8.60;99.90;;;;;;5018153;28;20046;-51
2022/04/29 06:30:14;;;;;;;8.82;3.80;;;8.60;99.90;;;;;;5016598;28;20048;-52
2022/04/29 06:32:40;;;;;;;9.52;3.80;;;8.60;99.90;;;;;;5018226;28;20101;-52
2022/04/29 06:35:06;;;;;;;10.85;4.10;;;8.70;99.90;;;;;;5016164;28;20797;-54
2022/04/29 06:37:33;;;;;;;11.48;4.20;;;8.70;99.90;;;;;;5017578;28;20098;-52
2022/04/29 06:39:59;;;;;;;9.90;4.05;;;8.80;99.90;;;;;;5016867;28;20081;-53
2022/04/29 06:42:24;;;;;;;9.82;4.65;;;8.90;99.90;;;;;;4999580;28;20054;-52
2022/04/29 06:44:50;;;;;;;9.38;4.40;;;9.00;99.90;;;;;;5000095;28;20101;-51
2022/04/29 06:47:17;;;;;;;8.18;3.30;;;9.10;99.90;;;;;;5016075;28;20050;-52
2022/04/29 06:49:43;;;;;;;8.38;3.00;;;9.10;99.90;;;;;;5018004;28;20053;-51
2022/04/29 06:52:09;;;;;;;6.78;2.78;;;9.30;99.90;;;;;;5016158;28;20501;-53
2022/04/29 06:54:35;;;;;;;10.73;3.10;;;9.20;99.90;;;;;;4999968;28;20489;-52
2022/04/29 06:57:01;;;;;;;6.53;2.72;;;9.30;99.90;;;;;;5016264;28;20049;-53
2022/04/29 06:59:27;;;;;;;6.95;3.17;;;9.30;99.90;;;;;;5016926;28;20058;-53
2022/04/29 07:01:53;;;;;;;9.43;2.75;;;9.30;99.90;;;;;;5017017;28;20101;-52
2022/04/29 07:04:19;;;;;;;9.77;3.28;;;9.40;99.90;;;;;;4998446;28;20559;-54
2022/04/29 07:06:44;;;;;;;8.45;3.10;;;9.40;99.90;;;;;;5017999;28;20084;-53
2022/04/29 07:09:10;;;;;;;8.77;2.90;;;9.40;99.90;;;;;;5015997;28;20728;-53
2022/04/29 07:11:36;;;;;;;9.25;3.70;;;9.30;99.90;;;;;;5017018;28;20143;-53
2022/04/29 07:14:02;;;;;;;8.10;3.35;;;9.30;99.90;;;;;;5016085;28;20046;-52
2022/04/29 07:16:30;;;;;;;9.95;3.72;;;9.20;99.90;;;;;;5016323;28;20058;-54
2022/04/29 07:18:57;;;;;;;6.97;3.00;;;9.30;99.90;;;;;;5016790;28;20046;-52
2022/04/29 07:21:23;;;;;;;10.18;3.63;;;9.20;99.90;;;;;;4998020;28;20065;-52
2022/04/29 07:23:49;;;;;;;9.30;3.58;;;9.20;99.90;;;;;;5016775;28;20068;-53
2022/04/29 07:26:15;;;;;;;13.05;5.63;;;9.20;99.90;;;;;;5015793;28;20069;-53
2022/04/29 07:28:41;;;;;;;10.23;3.67;;;9.20;99.90;;;;;;5017222;28;20060;-54
2022/04/29 07:31:07;;;;;;;7.30;2.83;;;9.20;99.90;;;;;;5015690;28;20440;-51
2022/04/29 07:33:33;;;;;;;6.47;3.10;;;9.20;99.90;;;;;;5016853;28;20049;-49
2022/04/29 07:41:46;;;;;;;7.75;2.92;;;9.20;99.90;;;;;;5016838;28;20050;-52
2022/04/29 07:44:13;;;;;;;7.43;2.60;;;9.30;99.90;;;;;;5015348;28;20129;-52
2022/04/29 07:46:39;;;;;;;8.18;3.15;;;9.30;99.90;;;;;;5016260;28;20543;-54
2022/04/29 07:49:06;;;;;;;6.18;2.83;;;9.30;99.90;;;;;;5016561;28;20133;-53
2022/04/29 07:51:31;;;;;;;8.35;3.50;;;9.30;99.90;;;;;;5015335;28;20049;-52
2022/04/29 07:53:57;;;;;;;8.50;3.45;;;9.30;99.90;;;;;;5016493;28;20073;-52
2022/04/29 07:56:23;;;;;;;7.50;3.63;;;9.30;99.90;;;;;;5015102;28;20041;-51
2022/04/29 07:58:49;;;;;;;9.77;3.72;;;9.30;99.90;;;;;;4998315;28;20061;-52
2022/04/29 08:01:15;;;;;;;10.40;4.00;;;9.30;99.90;;;;;;5015231;28;20081;-50
2022/04/29 08:03:42;;;;;;;8.57;4.28;;;9.30;99.90;;;;;;5016157;28;20057;-51
2022/04/29 08:06:08;;;;;;;11.93;4.00;;;9.40;99.90;;;;;;5016179;28;20057;-50
2022/04/29 08:08:35;;;;;;;6.97;3.50;;;9.50;99.90;;;;;;4997600;28;20108;-52
2022/04/29 08:11:01;;;;;;;7.38;3.40;;;9.50;99.90;;;;;;5016086;28;20042;-49
2022/04/29 08:13:28;;;;;;;8.45;3.58;;;9.40;99.90;;;;;;5016851;28;20045;-51
2022/04/29 08:15:53;;;;;;;11.13;3.17;;;9.50;99.90;;;;;;5019293;28;20085;-51
2022/04/29 08:18:20;;;;;;;7.20;3.28;;;9.50;99.90;;;;;;5000030;28;20061;-52
2022/04/29 08:20:46;;;;;;;9.30;3.40;;;9.50;99.90;;;;;;5018790;28;20076;-52
2022/04/29 08:23:12;;;;;;;9.13;3.53;;;9.60;99.90;;;;;;5017436;28;20141;-49
2022/04/29 08:25:38;;;;;;;10.80;3.03;;;9.60;99.90;;;;;;5018188;28;20050;-52
2022/04/29 08:28:04;;;;;;;6.80;3.22;;;9.80;99.90;;;;;;5022781;28;20042;-52
2022/04/29 08:30:30;;;;;;;8.07;3.13;;;9.80;99.90;;;;;;5022172;28;20041;-50
2022/04/29 08:32:57;;;;;;;8.82;3.20;;;9.90;99.90;;;;;;5005999;28;20056;-51
2022/04/29 08:35:24;;;;;;;7.43;2.60;;;10.00;99.90;;;;;;5022121;28;20049;-53
2022/04/29 08:37:50;;;;;;;8.95;3.20;;;10.00;99.90;;;;;;5023124;28;20042;-52
2022/04/29 08:40:16;;;;;;;6.65;2.92;;;10.10;99.90;;;;;;5022601;28;20045;-51
2022/04/29 08:42:42;;;;;;;10.95;3.13;;;10.10;99.90;;;;;;5022288;28;20072;-52
2022/04/29 08:45:11;;;;;;;6.53;3.13;;;10.20;99.90;;;;;;5023776;28;20042;-51
2022/04/29 08:47:38;;;;;;;9.30;3.13;;;10.20;99.90;;;;;;5021666;28;20042;-49
2022/04/29 08:50:10;;;;;;;7.88;2.90;;;10.10;99.90;;;;;;5023173;28;20094;-55
2022/04/29 08:52:36;;;;;;;6.75;2.47;;;10.10;99.90;;;;;;5021077;28;20054;-52
2022/04/29 09:00:41;;;;;;;10.77;2.80;;;10.20;99.90;;;;;;5021372;28;20064;-53
2022/04/29 09:03:18;;;;;;;7.75;2.35;;;10.30;99.90;;;;;;5022682;28;20119;-52
2022/04/29 09:05:46;;;;;;;6.18;2.60;;;10.40;99.90;;;;;;5021896;28;20038;-50
2022/04/29 09:08:16;;;;;;;9.18;3.05;;;10.40;99.90;;;;;;5022245;28;20044;-53
2022/04/29 09:11:00;;;;;;;5.38;2.50;;;10.50;99.90;;;;;;5023033;28;20049;-52
2022/04/29 09:13:30;;;;;;;7.28;2.78;;;10.60;99.90;;;;;;5021376;28;20041;-52
2022/04/29 09:16:04;;;;;;;7.93;2.95;;;10.60;99.90;;;;;;5014725;28;20530;-50
2022/04/29 09:18:34;;;;;;;7.47;3.00;;;10.60;99.90;;;;;;5008401;28;20121;-51
2022/04/29 09:21:27;;;;;;;5.90;2.67;;;10.40;99.90;;;;;;5002271;28;20118;-51
2022/04/29 09:24:03;;;;;;;8.35;3.50;;;10.40;99.90;;;;;;5000444;28;20058;-50
2022/04/29 09:26:35;;;;;;;10.05;3.63;;;10.30;99.90;;;;;;5001491;28;20112;-52
2022/04/29 09:29:11;;;;;;;7.90;3.75;;;10.20;99.90;;;;;;5002483;28;20034;-50
2022/04/29 09:31:53;;;;;;;7.43;3.85;;;10.30;99.90;;;;;;5003493;28;20477;-50
2022/04/29 09:34:19;;;;;;;9.07;3.53;;;10.30;99.90;;;;;;5007328;28;20050;-51
2022/04/29 09:36:44;;;;;;;8.93;4.43;;;10.20;99.90;;;;;;5012790;28;20077;-53
2022/04/29 09:39:30;;;;;;;8.48;3.78;;;10.20;99.90;;;;;;5019815;28;20382;-50
2022/04/29 09:41:55;;;;;;;8.27;3.60;;;10.20;99.90;;;;;;5005533;28;20076;-50
2022/04/29 09:44:27;;;;;;;7.13;3.35;;;10.20;99.90;;;;;;5008938;28;20113;-51
2022/04/29 09:46:53;;;;;;;8.00;3.95;;;10.30;99.90;;;;;;5006216;28;20049;-49
2022/04/29 09:49:19;;;;;;;8.23;3.80;;;10.30;99.90;;;;;;5006684;28;20038;-52
2022/04/29 09:51:51;;;;;;;8.63;3.40;;;10.20;99.90;;;;;;5009615;28;20050;-52
2022/04/29 09:54:21;;;;;;;5.38;3.22;;;10.20;99.90;;;;;;5014932;28;20077;-53
2022/04/29 09:57:11;;;;;;;8.85;4.72;;;10.20;99.90;;;;;;5015908;28;20042;-51
2022/04/29 09:59:44;;;;;;;8.30;4.18;;;10.30;99.90;;;;;;4994661;28;20098;-53
2022/04/29 10:02:13;;;;;;;8.85;4.30;;;10.30;99.90;;;;;;5018955;28;20054;-52
2022/04/29 10:04:44;;;;;;;8.13;4.03;;;10.30;99.90;;;;;;5016629;28;20034;-52
2022/04/29 10:07:12;;;;;;;8.23;4.10;;;10.20;99.90;;;;;;5002263;28;20458;-52
2022/04/29 10:09:43;;;;;;;7.13;3.80;;;10.30;99.90;;;;;;4999114;28;20473;-53
2022/04/29 10:12:14;;;;;;;8.80;4.60;;;10.20;99.90;;;;;;5021387;28;20065;-53
2022/04/29 10:14:40;;;;;;;7.18;3.75;;;10.20;99.90;;;;;;5023491;28;20053;-52
2022/04/29 10:22:55;;;;;;;10.10;4.32;;;10.00;99.90;;;;;;4984555;28;20169;-51
2022/04/29 10:25:24;;;;;;;9.27;3.70;;;10.00;99.90;;;;;;4991124;28;20050;-49
2022/04/29 10:27:51;;;;;;;8.43;3.40;;;10.00;99.90;;;;;;5020808;28;20868;-52
2022/04/29 10:30:27;;;;;;;7.97;3.30;;;10.00;99.90;;;;;;5011299;28;20041;-50
2022/04/29 10:33:11;;;;;;;6.95;3.47;;;10.00;99.90;;;;;;5013869;28;20049;-52
2022/04/29 10:35:40;;;;;;;9.32;3.50;;;10.00;99.90;;;;;;5001723;28;20613;-51
2022/04/29 10:38:34;;;;;;;8.27;3.75;;;10.10;99.90;;;;;;5025135;28;20497;-52
2022/04/29 10:41:17;;;;;;;6.38;3.30;;;10.00;99.90;;;;;;5012669;28;20050;-52
2022/04/29 10:43:52;;;;;;;6.85;4.10;;;10.10;99.90;;;;;;5005835;28;20054;-50
2022/04/29 10:46:22;;;;;;;8.27;3.53;;;10.10;99.90;;;;;;5020294;28;20042;-48
2022/04/29 10:48:49;;;;;;;6.45;3.10;;;10.30;99.90;;;;;;4983397;28;20049;-51
2022/04/29 10:51:16;;;;;;;7.43;3.30;;;10.30;99.90;;;;;;5012493;28;20096;-52
2022/04/29 10:53:43;;;;;;;8.75;2.85;;;10.30;99.90;;;;;;5020953;28;20049;-54
2022/04/29 10:56:31;;;;;;;8.38;2.80;;;10.40;99.90;;;;;;5001547;28;20045;-52
2022/04/29 10:59:19;;;;;;;7.18;3.83;;;10.40;99.90;;;;;;5020746;28;20042;-52
2022/04/29 11:01:51;;;;;;;9.35;3.60;;;10.40;99.90;;;;;;5020248;28;20085;-52
2022/04/29 11:04:16;;;;;;;7.53;3.45;;;10.70;99.90;;;;;;5016271;28;20077;-52
2022/04/29 11:06:45;;;;;;;7.65;4.07;;;10.60;99.90;;;;;;5019735;28;20042;-51
2022/04/29 11:09:28;;;;;;;8.38;4.38;;;10.80;99.90;;;;;;5019286;28;20097;-50
2022/04/29 11:11:54;;;;;;;;;;;10.90;99.90;;;;;;5020874;28;20046;-53
2022/04/29 11:14:20;;;;;;;9.32;3.50;;;11.00;99.90;;;;;;5020757;28;19921;-52
2022/04/29 11:16:55;;;;;;;8.90;3.80;;;11.20;99.90;;;;;;5021894;28;20547;-50
2022/04/29 11:19:26;;;;;;;8.45;3.38;;;11.00;99.90;;;;;;5039247;28;20047;-52
2022/04/29 11:24:48;;;;;;;7.28;3.97;;;11.00;99.90;;;;;;5016784;28;20062;-51
2022/04/29 11:27:23;;;;;;;8.13;3.22;;;10.70;99.90;;;;;;5010612;28;20038;-52
2022/04/29 11:29:49;;;;;;;8.43;3.33;;;10.70;99.90;;;;;;5004145;28;20049;-53
2022/04/29 11:32:25;;;;;;;6.47;3.35;;;10.70;99.90;;;;;;5005656;28;20050;-54
2022/04/29 11:34:55;;;;;;;6.60;3.70;;;10.70;99.90;;;;;;5012489;28;20042;-52
2022/04/29 11:37:26;;;;;;;9.98;3.20;;;10.70;99.90;;;;;;4996745;28;20037;-54
2022/04/29 11:39:55;;;;;;;9.25;2.97;;;10.60;99.90;;;;;;5012083;28;20077;-52
2022/04/29 11:42:22;;;;;;;12.40;3.70;;;10.80;99.90;;;;;;5013157;28;20042;-52
2022/04/29 11:44:51;;;;;;;8.27;3.42;;;10.90;99.90;;;;;;5013337;28;20030;-51
2022/04/29 11:47:26;;;;;;;7.50;3.13;;;11.10;99.90;;;;;;5012494;28;20096;-52
2022/04/29 11:49:52;;;;;;;7.80;2.95;;;11.10;99.90;;;;;;5010685;28;20104;-51
2022/04/29 11:52:30;;;;;;;9.98;3.33;;;11.30;99.90;;;;;;5013173;28;20046;-53
2022/04/29 11:55:03;;;;;;;6.35;3.00;;;11.40;99.90;;;;;;5014638;28;20049;-50
2022/04/29 11:57:31;;;;;;;7.88;3.72;;;11.40;99.90;;;;;;5011578;28;20049;-53
2022/04/29 11:59:57;;;;;;;7.53;3.33;;;11.40;99.90;;;;;;5014124;28;20048;-51
2022/04/29 12:02:25;;;;;;;8.73;3.78;;;11.30;99.90;;;;;;5015939;28;20048;-54
2022/04/29 12:04:55;;;;;;;8.50;3.22;;;11.00;99.90;;;;;;5014804;28;20337;-50
2022/04/29 12:07:22;;;;;;;6.53;3.15;;;11.00;99.90;;;;;;5016168;28;20054;-52
2022/04/29 12:09:48;;;;;;;7.65;3.38;;;11.10;99.90;;;;;;5015302;28;20061;-49
2022/04/29 12:12:31;;;;;;;7.75;3.38;;;11.10;99.90;;;;;;5015661;28;20041;-53
2022/04/29 12:15:00;;;;;;;11.43;3.13;;;11.20;99.90;;;;;;5022727;28;20105;-53
2022/04/29 12:17:33;;;;;;;8.70;2.85;;;11.10;99.90;;;;;;5019427;28;20129;-52
2022/04/29 12:20:00;;;;;;;7.47;3.38;;;11.10;99.90;;;;;;5007046;28;20077;-52
2022/04/29 12:22:31;;;;;;;7.15;3.00;;;11.10;99.90;;;;;;4991536;28;20056;-51
2022/04/29 12:24:57;;;;;;;6.28;2.88;;;11.10;99.90;;;;;;5008733;28;20042;-54
2022/04/29 12:27:30;;;;;;;7.40;2.65;;;10.90;99.90;;;;;;5006934;28;20044;-59
2022/04/29 12:35:29;;;;;;;8.13;3.25;;;11.10;99.90;;;;;;5014406;28;20068;-53
2022/04/29 12:37:55;;;;;;;7.60;2.88;;;11.10;99.90;;;;;;5013163;28;20040;-51
2022/04/29 12:40:29;;;;;;;7.18;3.40;;;11.10;99.90;;;;;;5011898;28;20049;-53
2022/04/29 12:43:12;;;;;;;6.68;3.58;;;11.20;99.90;;;;;;4994593;28;20050;-50
2022/04/29 12:45:37;;;;;;;7.38;3.35;;;11.30;99.90;;;;;;5008199;28;20064;-53
2022/04/29 12:48:08;;;;;;;7.53;2.95;;;11.00;99.90;;;;;;5013468;28;20117;-50
2022/04/29 12:50:38;;;;;;;7.22;3.03;;;11.20;99.90;;;;;;5003182;28;20047;-50
2022/04/29 12:53:09;;;;;;;9.00;3.40;;;11.50;99.90;;;;;;5009054;28;20053;-53
2022/04/29 12:55:48;;;;;;;7.38;2.78;;;11.40;99.90;;;;;;5010261;28;20085;-52
2022/04/29 12:58:26;;;;;;;6.10;2.60;;;11.20;99.90;;;;;;5011353;28;20131;-53
2022/04/29 13:00:55;;;;;;;9.50;3.17;;;11.50;99.90;;;;;;5003707;28;20054;-52
2022/04/29 13:03:31;;;;;;;7.53;3.35;;;11.50;99.90;;;;;;5013932;28;20038;-54
2022/04/29 13:06:01;;;;;;;8.88;3.05;;;11.50;99.90;;;;;;4993788;28;20049;-50
2022/04/29 13:08:27;;;;;;;5.30;2.85;;;11.50;99.90;;;;;;4995750;28;20038;-53
2022/04/29 13:10:58;;;;;;;6.93;2.60;;;11.60;99.90;;;;;;5010470;28;20102;-51
2022/04/29 13:13:28;;;;;;;8.40;2.60;;;11.80;99.90;;;;;;5012833;28;20061;-51
2022/04/29 13:15:54;;;;;;;7.45;3.20;;;11.70;99.90;;;;;;5016636;28;20176;-54
2022/04/29 13:18:21;;;;;;;8.63;3.33;;;11.80;99.90;;;;;;5017790;28;20074;-52
2022/04/29 13:20:47;;;;;;;8.23;2.78;;;11.90;99.90;;;;;;5009619;28;20896;-53
2022/04/29 13:23:14;;;;;;;8.05;2.88;;;12.10;99.90;;;;;;5011593;28;20054;-52